createdAt,value
2023-02-23T00:02:07.476Z,9.83
2023-02-23T00:04:35.928Z,9.79
2023-02-23T00:07:03.383Z,9.73
2023-02-23T00:09:35.759Z,9.78
2023-02-23T00:12:08.326Z,9.74
2023-02-23T00:14:38.594Z,9.73
2023-02-23T00:17:14.969Z,9.64
2023-02-23T00:19:44.005Z,9.53
2023-02-23T00:22:12.347Z,9.54
2023-02-23T00:24:40.771Z,9.44
2023-02-23T00:27:07.882Z,9.42
2023-02-23T00:29:39.596Z,9.51
2023-02-23T00:32:06.917Z,9.48
2023-02-23T00:34:36.096Z,9.46
2023-02-23T00:37:03.954Z,9.43
2023-02-23T00:39:30.841Z,9.35
2023-02-23T00:42:03.329Z,9.26
2023-02-23T00:44:32.523Z,9.29
2023-02-23T00:47:00.351Z,9.28
2023-02-23T00:49:27.682Z,9.29
2023-02-23T00:51:55.440Z,9.27
2023-02-23T00:54:22.519Z,9.24
2023-02-23T00:56:50.644Z,9.21
2023-02-23T00:59:19.876Z,9.20
2023-02-23T01:01:47.107Z,9.20
2023-02-23T01:04:14.763Z,9.25
2023-02-23T01:06:42.704Z,9.16
2023-02-23T01:09:13.693Z,9.12
2023-02-23T01:11:41.702Z,9.19
2023-02-23T01:14:10.603Z,9.15
2023-02-23T01:16:39.156Z,9.14
2023-02-23T01:19:06.457Z,9.10
2023-02-23T01:21:40.239Z,9.16
2023-02-23T01:24:07.437Z,9.19
2023-02-23T01:26:38.687Z,9.16
2023-02-23T01:29:15.210Z,9.16
2023-02-23T01:31:45.398Z,9.06
2023-02-23T01:34:15.811Z,9.03
2023-02-23T01:36:45.266Z,9.04
2023-02-23T01:39:17.791Z,9.07
2023-02-23T01:41:45.501Z,9.09
2023-02-23T01:44:15.518Z,9.10
2023-02-23T01:46:45.612Z,9.00
2023-02-23T01:49:16.496Z,9.03
2023-02-23T01:51:50.332Z,8.96
2023-02-23T01:54:25.052Z,9.11
2023-02-23T01:56:58.573Z,9.12
2023-02-23T01:59:38.340Z,9.10
2023-02-23T02:02:05.798Z,9.13
2023-02-23T02:04:44.848Z,9.08
2023-02-23T02:07:20.860Z,9.19
2023-02-23T02:10:10.057Z,9.16
2023-02-23T02:12:52.202Z,9.12
2023-02-23T02:15:22.698Z,9.17
2023-02-23T02:18:09.585Z,9.21
2023-02-23T02:21:11.817Z,9.23
2023-02-23T02:23:42.249Z,9.23
2023-02-23T02:26:39.031Z,9.23
2023-02-23T02:29:11.942Z,9.23
2023-02-23T02:32:01.595Z,9.24
2023-02-23T02:35:05.180Z,9.25
2023-02-23T02:38:11.028Z,9.26
2023-02-23T02:41:01.792Z,9.18
2023-02-23T02:43:38.102Z,9.19
2023-02-23T02:46:16.218Z,9.19
2023-02-23T02:49:14.314Z,9.26
2023-02-23T02:51:47.581Z,9.25
2023-02-23T02:54:43.944Z,9.25
2023-02-23T02:57:13.972Z,9.17
2023-02-23T03:00:04.973Z,9.21
2023-02-23T03:02:53.335Z,9.15
2023-02-23T03:05:42.900Z,9.14
2023-02-23T03:08:37.624Z,9.13
2023-02-23T03:11:29.708Z,9.05
2023-02-23T03:14:41.178Z,9.07
2023-02-23T03:17:46.758Z,9.09
2023-02-23T03:20:51.435Z,9.10
2023-02-23T03:23:58.632Z,9.07
2023-02-23T03:26:55.263Z,9.01
2023-02-23T03:29:44.102Z,9.01
2023-02-23T03:32:39.807Z,8.96
2023-02-23T03:35:32.257Z,8.98
2023-02-23T03:38:46.043Z,8.95
2023-02-23T03:41:35.017Z,8.84
2023-02-23T03:44:31.677Z,8.83
2023-02-23T03:47:19.825Z,8.80
2023-02-23T03:50:08.494Z,8.81
2023-02-23T03:53:01.736Z,8.73
2023-02-23T03:55:53.113Z,8.73
2023-02-23T03:58:47.110Z,8.71
2023-02-23T04:01:35.749Z,8.65
2023-02-23T04:04:23.378Z,8.64
2023-02-23T04:07:11.261Z,8.64
2023-02-23T04:09:57.042Z,8.64
2023-02-23T04:12:59.046Z,8.58
2023-02-23T04:15:34.131Z,8.65
2023-02-23T04:18:04.957Z,8.54
2023-02-23T04:20:32.539Z,8.55
2023-02-23T04:23:00.219Z,8.58
2023-02-23T04:25:28.635Z,8.48
2023-02-23T04:27:56.006Z,8.44
2023-02-23T04:30:28.690Z,8.44
2023-02-23T04:32:56.798Z,8.41
2023-02-23T04:35:23.952Z,8.35
2023-02-23T04:37:51.161Z,8.35
2023-02-23T04:40:18.726Z,8.31
2023-02-23T04:42:46.378Z,8.31
2023-02-23T04:45:15.061Z,8.30
2023-02-23T04:47:42.392Z,8.19
2023-02-23T04:50:10.435Z,8.18
2023-02-23T04:52:39.181Z,8.15
2023-02-23T04:55:08.629Z,8.11
2023-02-23T04:57:36.270Z,8.11
2023-02-23T05:00:04.926Z,7.99
2023-02-23T05:02:32.414Z,8.06
2023-02-23T05:04:59.538Z,8.13
2023-02-23T05:07:26.687Z,8.05
2023-02-23T05:09:53.900Z,8.03
2023-02-23T05:12:21.177Z,8.00
2023-02-23T05:14:48.289Z,8.04
2023-02-23T05:17:15.577Z,8.02
2023-02-23T05:19:42.835Z,8.01
2023-02-23T05:22:12.858Z,8.05
2023-02-23T05:24:41.084Z,8.03
2023-02-23T05:27:20.366Z,8.02
2023-02-23T05:29:51.723Z,8.03
2023-02-23T05:32:18.932Z,8.03
2023-02-23T05:35:06.107Z,8.06
2023-02-23T05:40:45.494Z,8.03
2023-02-23T05:43:14.677Z,8.04
2023-02-23T05:45:43.407Z,8.07
2023-02-23T07:56:12.580Z,8.54
2023-02-23T08:25:02.093Z,8.82
2023-02-23T08:27:29.383Z,8.85
2023-02-23T08:29:56.885Z,8.91
2023-02-23T08:32:23.733Z,8.97
2023-02-23T08:34:50.603Z,9.06
2023-02-23T08:37:17.414Z,9.15
2023-02-23T08:39:44.406Z,9.23
2023-02-23T08:42:11.136Z,9.33
2023-02-23T08:44:37.935Z,9.41
2023-02-23T08:47:05.134Z,9.52
2023-02-23T08:49:33.157Z,9.59
2023-02-23T08:51:59.917Z,9.65
2023-02-23T08:54:27.259Z,9.69
2023-02-23T08:56:56.971Z,9.73
2023-02-23T08:59:24.042Z,9.76
2023-02-23T09:01:50.858Z,9.81
2023-02-23T09:04:18.689Z,9.86
2023-02-23T09:06:47.623Z,9.94
2023-02-23T09:09:14.933Z,10.02
2023-02-23T09:24:28.864Z,10.33
2023-02-23T09:27:07.327Z,10.33
2023-02-23T09:29:38.265Z,10.29
2023-02-23T09:32:05.548Z,10.29
2023-02-23T09:34:32.662Z,10.28
2023-02-23T09:37:02.891Z,10.25
2023-02-23T09:39:38.252Z,10.22
2023-02-23T09:42:08.727Z,10.26
2023-02-23T09:45:13.448Z,10.34
2023-02-23T09:47:55.054Z,10.42
2023-02-23T09:50:25.713Z,10.45
2023-02-23T09:53:01.330Z,10.50
2023-02-23T09:55:29.426Z,10.52
2023-02-23T09:58:02.412Z,10.50
2023-02-23T10:00:31.361Z,10.47
2023-02-23T10:03:22.470Z,10.45
2023-02-23T10:05:58.561Z,10.44
2023-02-23T10:08:49.467Z,10.43
2023-02-23T10:11:24.005Z,10.44
2023-02-23T10:14:20.759Z,10.45
2023-02-23T10:17:01.093Z,10.46
2023-02-23T10:20:00.135Z,10.49
2023-02-23T10:22:29.077Z,10.45
2023-02-23T10:25:03.311Z,10.46
2023-02-23T10:27:37.961Z,10.49
2023-02-23T10:30:24.343Z,10.49
2023-02-23T10:32:59.490Z,10.48
2023-02-23T10:35:29.693Z,10.48
2023-02-23T10:37:58.083Z,10.51
2023-02-23T10:40:28.970Z,10.53
2023-02-23T10:42:58.423Z,10.58
2023-02-23T10:45:27.635Z,10.59
2023-02-23T10:48:02.042Z,10.63
2023-02-23T10:50:32.171Z,10.67
2023-02-23T10:53:24.570Z,10.73
2023-02-23T10:56:16.303Z,10.78
2023-02-23T10:58:58.142Z,10.81
2023-02-23T11:02:00.872Z,10.85
2023-02-23T11:04:35.225Z,10.85
2023-02-23T11:07:10.265Z,10.79
2023-02-23T11:09:46.596Z,10.78
2023-02-23T11:12:25.647Z,10.71
2023-02-23T11:14:55.279Z,10.69
2023-02-23T11:17:30.414Z,10.74
2023-02-23T11:20:02.510Z,10.77
2023-02-23T11:22:37.559Z,10.75
2023-02-23T11:25:17.024Z,10.75
2023-02-23T11:27:51.808Z,10.75
2023-02-23T11:30:24.433Z,10.73
2023-02-23T11:32:54.893Z,10.71
2023-02-23T11:35:21.805Z,10.68
2023-02-23T11:37:50.970Z,10.66
2023-02-23T11:40:26.460Z,10.66
2023-02-23T11:43:10.793Z,10.67
2023-02-23T11:45:49.395Z,10.66
2023-02-23T11:48:26.645Z,10.67
2023-02-23T11:50:55.118Z,10.63
2023-02-23T11:53:37.968Z,10.60
2023-02-23T11:56:13.367Z,10.58
2023-02-23T11:58:45.107Z,10.57
2023-02-23T12:01:17.410Z,10.56
2023-02-23T12:03:56.006Z,10.59
2023-02-23T12:06:39.540Z,10.60
2023-02-23T12:09:24.189Z,10.61
2023-02-23T12:12:00.912Z,10.61
2023-02-23T12:14:39.108Z,10.60
2023-02-23T12:17:38.000Z,10.59
2023-02-23T12:20:24.528Z,10.55
2023-02-23T12:22:59.206Z,10.53
2023-02-23T12:25:57.818Z,10.52
2023-02-23T12:29:20.612Z,10.51
2023-02-23T12:31:54.124Z,10.47
2023-02-23T12:34:39.540Z,10.46
2023-02-23T12:37:31.495Z,10.46
2023-02-23T12:40:08.316Z,10.45
2023-02-23T12:43:17.801Z,10.42
2023-02-23T12:45:55.315Z,10.40
2023-02-23T12:48:41.115Z,10.36
2023-02-23T12:51:25.838Z,10.40
2023-02-23T12:53:53.454Z,10.42
2023-02-23T12:56:23.301Z,10.47
2023-02-23T12:59:14.615Z,10.53
2023-02-23T13:01:56.233Z,10.58
2023-02-23T13:04:55.279Z,10.65
2023-02-23T13:08:12.983Z,10.70
2023-02-23T13:11:09.924Z,10.72
2023-02-23T13:14:01.263Z,10.73
2023-02-23T13:16:51.727Z,10.79
2023-02-23T13:19:32.534Z,10.80
2023-02-23T13:22:08.024Z,10.78
2023-02-23T13:25:00.383Z,10.83
2023-02-23T13:27:47.105Z,10.87
2023-02-23T13:30:16.995Z,10.90
2023-02-23T13:33:06.515Z,10.98
2023-02-23T13:35:39.521Z,11.04
2023-02-23T13:38:35.014Z,11.16
2023-02-23T13:41:18.180Z,11.19
2023-02-23T13:44:22.674Z,11.22
2023-02-23T13:46:57.718Z,11.27
2023-02-23T13:49:36.497Z,11.32
2023-02-23T13:52:14.551Z,11.39
2023-02-23T13:54:53.573Z,11.48
2023-02-23T13:57:22.937Z,11.51
2023-02-23T13:59:51.641Z,11.53
2023-02-23T14:02:41.326Z,11.50
2023-02-23T14:05:18.876Z,11.46
2023-02-23T14:07:52.074Z,11.44
2023-02-23T14:10:29.961Z,11.39
2023-02-23T14:13:03.117Z,11.34
2023-02-23T14:15:39.705Z,11.34
2023-02-23T14:18:20.295Z,11.35
2023-02-23T14:20:53.649Z,11.28
2023-02-23T14:24:08.728Z,11.18
2023-02-23T14:26:39.302Z,11.11
2023-02-23T14:29:27.797Z,11.10
2023-02-23T14:32:05.030Z,11.08
2023-02-23T14:34:54.106Z,11.08
2023-02-23T14:37:26.011Z,11.10
2023-02-23T14:40:18.703Z,11.16
2023-02-23T14:42:53.818Z,11.15
2023-02-23T14:45:27.523Z,11.17
2023-02-23T14:48:17.438Z,11.21
2023-02-23T14:50:47.063Z,11.25
2023-02-23T14:53:22.346Z,11.29
2023-02-23T14:55:50.534Z,11.30
2023-02-23T14:58:35.469Z,11.31
2023-02-23T15:01:02.421Z,11.32
2023-02-23T15:03:30.590Z,11.33
2023-02-23T15:06:00.691Z,11.32
2023-02-23T15:08:30.566Z,11.31
2023-02-23T15:11:11.016Z,11.31
2023-02-23T15:13:42.777Z,11.30
2023-02-23T15:16:23.342Z,11.33
2023-02-23T15:19:31.133Z,11.34
2023-02-23T15:22:00.937Z,11.32
2023-02-23T15:24:42.653Z,11.35
2023-02-23T15:27:29.018Z,11.37
2023-02-23T15:29:57.122Z,11.36
2023-02-23T15:32:26.336Z,11.36
2023-02-23T15:34:56.631Z,11.38
2023-02-23T15:37:29.446Z,11.36
2023-02-23T15:40:05.464Z,11.32
2023-02-23T15:42:49.339Z,11.26
2023-02-23T15:45:54.698Z,11.23
2023-02-23T15:48:28.893Z,11.21
2023-02-23T15:50:57.998Z,11.21
2023-02-23T15:53:33.674Z,11.19
2023-02-23T15:56:28.131Z,11.20
2023-02-23T15:59:04.151Z,11.16
2023-02-23T16:01:32.755Z,11.11
2023-02-23T16:04:16.354Z,11.10
2023-02-23T16:06:55.790Z,11.08
2023-02-23T16:09:24.372Z,11.03
2023-02-23T16:12:04.992Z,11.00
2023-02-23T16:14:46.936Z,11.01
2023-02-23T16:17:21.535Z,10.98
2023-02-23T16:19:48.929Z,10.97
2023-02-23T16:22:23.382Z,10.95
2023-02-23T16:25:01.078Z,10.90
2023-02-23T16:27:30.426Z,10.88
2023-02-23T16:30:25.931Z,10.83
2023-02-23T16:33:11.862Z,10.79
2023-02-23T16:35:46.060Z,10.78
2023-02-23T16:38:33.624Z,10.78
2023-02-23T16:41:03.973Z,10.79
2023-02-23T16:43:35.516Z,10.79
2023-02-23T16:46:03.072Z,10.77
2023-02-23T16:48:30.472Z,10.78
2023-02-23T16:51:02.057Z,10.77
2023-02-23T16:53:30.333Z,10.77
2023-02-23T16:56:01.314Z,10.77
2023-02-23T16:58:30.908Z,10.77
2023-02-23T17:00:58.427Z,10.79
2023-02-23T17:03:27.677Z,10.80
2023-02-23T17:05:55.536Z,10.82
2023-02-23T17:08:23.384Z,10.83
2023-02-23T17:10:52.908Z,10.84
2023-02-23T17:13:25.484Z,10.86
2023-02-23T17:15:56.451Z,10.87
2023-02-23T17:18:31.989Z,10.85
2023-02-23T17:21:02.799Z,10.87
2023-02-23T17:23:50.933Z,10.87
2023-02-23T17:26:21.455Z,10.87
2023-02-23T17:28:49.169Z,10.87
2023-02-23T17:31:18.483Z,10.85
2023-02-23T17:33:46.510Z,10.83
2023-02-23T17:36:17.521Z,10.80
2023-02-23T17:38:48.008Z,10.78
2023-02-23T17:41:20.560Z,10.76
2023-02-23T17:43:47.794Z,10.73
2023-02-23T17:46:17.382Z,10.71
2023-02-23T17:48:46.885Z,10.69
2023-02-23T17:51:17.037Z,10.64
2023-02-23T17:53:45.521Z,10.58
2023-02-23T17:56:12.668Z,10.54
2023-02-23T17:58:40.573Z,10.51
2023-02-23T18:01:09.333Z,10.48
2023-02-23T18:03:37.506Z,10.49
2023-02-23T18:06:10.110Z,10.45
2023-02-23T18:08:38.791Z,10.45
2023-02-23T18:11:06.497Z,10.42
2023-02-23T18:13:41.386Z,10.43
2023-02-23T18:16:11.083Z,10.42
2023-02-23T18:18:39.950Z,10.40
2023-02-23T18:21:13.074Z,10.41
2023-02-23T18:23:41.830Z,10.40
2023-02-23T18:26:17.927Z,10.40
2023-02-23T18:28:46.380Z,10.37
2023-02-23T18:31:23.756Z,10.37
2023-02-23T18:33:55.053Z,10.37
2023-02-23T18:36:24.859Z,10.38
2023-02-23T18:38:52.560Z,10.40
2023-02-23T18:41:20.449Z,10.43
2023-02-23T18:43:48.081Z,10.44
2023-02-23T18:46:16.263Z,10.44
2023-02-23T18:48:44.160Z,10.45
2023-02-23T18:51:14.924Z,10.46
2023-02-23T18:53:42.844Z,10.43
2023-02-23T18:56:16.008Z,10.44
2023-02-23T18:58:45.186Z,10.43
2023-02-23T19:01:13.718Z,10.43
2023-02-23T19:03:41.891Z,10.43
2023-02-23T19:06:10.644Z,10.44
2023-02-23T19:08:37.961Z,10.44
2023-02-23T19:11:05.277Z,10.47
2023-02-23T19:13:32.242Z,10.44
2023-02-23T19:16:04.794Z,10.44
2023-02-23T19:18:32.229Z,10.43
2023-02-23T19:20:59.186Z,10.38
2023-02-23T19:23:26.130Z,10.33
2023-02-23T19:25:54.337Z,10.30
2023-02-23T19:28:22.491Z,10.29
2023-02-23T19:30:50.627Z,10.28
2023-02-23T19:33:18.629Z,10.27
2023-02-23T19:35:45.763Z,10.25
2023-02-23T19:38:12.843Z,10.25
2023-02-23T19:40:43.889Z,10.23
2023-02-23T19:43:12.763Z,10.23
2023-02-23T19:45:46.824Z,10.22
2023-02-23T19:48:15.939Z,10.23
2023-02-23T19:50:49.686Z,10.24
2023-02-23T19:53:16.957Z,10.21
2023-02-23T19:55:45.472Z,10.19
2023-02-23T19:58:13.425Z,10.20
2023-02-23T20:00:40.539Z,10.20
2023-02-23T20:03:07.618Z,10.21
2023-02-23T20:05:43.346Z,10.21
2023-02-23T20:08:10.431Z,10.20
2023-02-23T20:10:41.679Z,10.16
2023-02-23T20:13:08.822Z,10.16
2023-02-23T20:15:37.601Z,10.17
2023-02-23T20:18:07.393Z,10.18
2023-02-23T20:20:35.973Z,10.18
2023-02-23T20:23:08.275Z,10.16
2023-02-23T20:25:36.268Z,10.15
2023-02-23T20:28:03.884Z,10.13
2023-02-23T20:30:31.051Z,10.09
2023-02-23T20:33:02.448Z,10.04
2023-02-23T20:35:32.557Z,9.98
2023-02-23T20:38:00.016Z,9.90
2023-02-23T20:40:27.843Z,9.86
2023-02-23T20:42:54.885Z,9.78
2023-02-23T20:45:24.607Z,9.67
2023-02-23T20:47:53.481Z,9.61
2023-02-23T20:50:25.795Z,9.57
2023-02-23T20:52:52.857Z,9.50
2023-02-23T20:55:22.480Z,9.47
2023-02-23T20:57:49.707Z,9.44
2023-02-23T21:00:24.359Z,9.42
2023-02-23T21:02:55.863Z,9.42
2023-02-23T21:05:26.390Z,9.42
2023-02-23T21:07:53.568Z,9.41
2023-02-23T21:10:21.708Z,9.40
2023-02-23T21:12:50.223Z,9.34
2023-02-23T21:15:17.372Z,9.32
2023-02-23T21:17:44.628Z,9.29
2023-02-23T21:20:14.134Z,9.29
2023-02-23T21:22:41.233Z,9.28
2023-02-23T21:25:10.951Z,9.27
2023-02-23T21:27:39.600Z,9.26
2023-02-23T21:30:09.700Z,9.25
2023-02-23T21:32:41.550Z,9.24
2023-02-23T21:35:13.366Z,9.25
2023-02-23T21:37:42.033Z,9.22
2023-02-23T21:40:12.208Z,9.23
2023-02-23T21:42:41.079Z,9.21
2023-02-23T21:45:11.133Z,9.20
2023-02-23T21:47:41.851Z,9.19
2023-02-23T21:50:14.011Z,9.20
2023-02-23T21:52:46.096Z,9.20
2023-02-23T21:55:23.417Z,9.17
2023-02-23T21:57:52.107Z,9.16
2023-02-23T22:00:20.986Z,9.16
2023-02-23T22:02:48.553Z,9.14
2023-02-23T22:05:17.900Z,9.15
2023-02-23T22:07:50.239Z,9.14
2023-02-23T22:10:18.990Z,9.11
2023-02-23T22:12:46.184Z,9.11
2023-02-23T22:15:15.885Z,9.07
2023-02-23T22:17:44.446Z,9.05
2023-02-23T22:20:14.283Z,9.04
2023-02-23T22:22:43.017Z,9.01
2023-02-23T22:25:10.633Z,9.01
2023-02-23T22:27:37.913Z,9.00
2023-02-23T22:30:07.731Z,9.00
2023-02-23T22:32:36.941Z,9.00
2023-02-23T22:35:06.304Z,8.98
2023-02-23T22:37:33.854Z,8.97
2023-02-23T22:40:13.193Z,8.96
2023-02-23T22:42:40.235Z,8.96
2023-02-23T22:45:13.126Z,8.98
2023-02-23T22:47:43.358Z,8.97
2023-02-23T22:50:18.396Z,8.97
2023-02-23T22:55:38.788Z,9.00
2023-02-23T22:58:12.346Z,8.97
2023-02-23T23:00:42.129Z,8.96
2023-02-23T23:03:10.628Z,8.94
2023-02-23T23:05:39.786Z,8.85
2023-02-23T23:08:09.986Z,8.82
2023-02-23T23:10:38.170Z,8.80
2023-02-23T23:13:05.624Z,8.76
2023-02-23T23:15:32.872Z,8.72
2023-02-23T23:17:59.981Z,8.67
2023-02-23T23:20:26.927Z,8.65
2023-02-23T23:22:54.965Z,8.65
2023-02-23T23:25:23.454Z,8.65
2023-02-23T23:27:54.795Z,8.64
2023-02-23T23:30:21.847Z,8.63
2023-02-23T23:32:49.448Z,8.60
2023-02-23T23:35:16.840Z,8.58
2023-02-23T23:37:44.284Z,8.56
2023-02-23T23:40:14.564Z,8.55
2023-02-23T23:42:46.879Z,8.54
2023-02-23T23:45:16.492Z,8.53
2023-02-23T23:47:45.294Z,8.52
2023-02-23T23:50:14.496Z,8.54
2023-02-23T23:52:44.714Z,8.55
2023-02-23T23:55:15.194Z,8.54
2023-02-23T23:57:44.460Z,8.52
